This is the latest recevied weather packets stored in our database for station/object SR6WVX. If no packets are shown the sender has not sent any weather packets the latest 10 day(s).
| Time | Temp. | Humidity | Pressure | Rain* | Wind** | Luminosity | Snow |
|---|---|---|---|---|---|---|---|
| 1778026377 | 11.67° C | 85% | 999.3 hPa | 0 mm | - | - | - |
| 1778026077 | 11.67° C | 85% | 999.4 hPa | 0 mm | - | - | - |
| 1778025777 | 11.11° C | 85% | 999.6 hPa | 0 mm | - | - | - |
| 1778025477 | 11.11° C | 85% | 999.7 hPa | 0 mm | - | - | - |
| 1778025176 | 10.56° C | 84% | 999.6 hPa | 0 mm | - | - | - |
| 1778024876 | 10.56° C | 84% | 999.5 hPa | 0 mm | - | - | - |
| 1778024576 | 10.56° C | 83% | 999.5 hPa | 0 mm | - | - | - |
| 1778024276 | 10.56° C | 82% | 999.4 hPa | 0 mm | - | - | - |
| 1778023975 | 10.56° C | 82% | 999.4 hPa | 0 mm | - | - | - |
| 1778023675 | 10.56° C | 82% | 999.5 hPa | 0 mm | - | - | - |
| 1778023375 | 10.56° C | 82% | 999.6 hPa | 0 mm | - | - | - |
| 1778023075 | 10.56° C | 82% | 999.5 hPa | 0 mm | - | - | - |
| 1778022774 | 10.56° C | 81% | 999.5 hPa | 0 mm | - | - | - |
| 1778022474 | 11.11° C | 79% | 999.6 hPa | 0 mm | - | - | - |
| 1778022174 | 11.11° C | 79% | 999.6 hPa | 0 mm | - | - | - |
| 1778021874 | 11.11° C | 79% | 999.5 hPa | 0 mm | - | - | - |
| 1778021573 | 11.67° C | 78% | 999.8 hPa | 0 mm | - | - | - |
| 1778021273 | 11.67° C | 78% | 999.8 hPa | 0 mm | - | - | - |
| 1778020973 | 12.22° C | 78% | 999.9 hPa | 0 mm | - | - | - |
| 1778020673 | 12.22° C | 77% | 999.9 hPa | 0 mm | - | - | - |
| 1778020372 | 12.22° C | 77% | 999.8 hPa | 0 mm | - | - | - |
| 1778020072 | 12.78° C | 75% | 1000.1 hPa | 0 mm | - | - | - |
| 1778019772 | 12.78° C | 75% | 1000.1 hPa | 0 mm | - | - | - |
| 1778019471 | 13.33° C | 75% | 1000.3 hPa | 0 mm | - | - | - |
| 1778019171 | 13.33° C | 74% | 1000.3 hPa | 0 mm | - | - | - |
* Rain latest hour (hover to see other rain measurements)
** Current wind speed in m/s (hover to see current wind gust speed)